sensor_id;sensor_type;location;lat;lon;timestamp;P1;durP1;ratioP1;P2;durP2;ratioP2
69627;SDS011;56850;51.984;5.088;2022-08-11T00:01:18;6.72;;;2.25;;
69627;SDS011;56850;51.984;5.088;2022-08-11T00:03:49;6.70;;;2.45;;
69627;SDS011;56850;51.984;5.088;2022-08-11T00:06:24;12.30;;;2.53;;
69627;SDS011;56850;51.984;5.088;2022-08-11T00:08:57;4.93;;;2.72;;
69627;SDS011;56850;51.984;5.088;2022-08-11T00:11:39;4.63;;;2.30;;
69627;SDS011;56850;51.984;5.088;2022-08-11T00:14:14;5.75;;;2.33;;
69627;SDS011;56850;51.984;5.088;2022-08-11T00:16:52;5.30;;;2.55;;
69627;SDS011;56850;51.984;5.088;2022-08-11T00:19:25;8.60;;;2.20;;
69627;SDS011;56850;51.984;5.088;2022-08-11T00:22:20;4.10;;;2.50;;
69627;SDS011;56850;51.984;5.088;2022-08-11T00:24:48;4.13;;;2.17;;
69627;SDS011;56850;51.984;5.088;2022-08-11T00:27:20;12.60;;;2.47;;
69627;SDS011;56850;51.984;5.088;2022-08-11T00:29:58;6.03;;;2.50;;
69627;SDS011;56850;51.984;5.088;2022-08-11T00:32:25;4.82;;;2.45;;
69627;SDS011;56850;51.984;5.088;2022-08-11T00:34:53;6.25;;;2.45;;
69627;SDS011;56850;51.984;5.088;2022-08-11T00:37:48;3.20;;;2.50;;
69627;SDS011;56850;51.984;5.088;2022-08-11T00:40:18;3.53;;;2.17;;
69627;SDS011;56850;51.984;5.088;2022-08-11T00:49:08;4.72;;;2.45;;
69627;SDS011;56850;51.984;5.088;2022-08-11T00:54:38;5.72;;;2.40;;
69627;SDS011;56850;51.984;5.088;2022-08-11T00:57:24;8.38;;;2.33;;
69627;SDS011;56850;51.984;5.088;2022-08-11T01:00:22;6.63;;;2.45;;
69627;SDS011;56850;51.984;5.088;2022-08-11T01:09:13;6.32;;;2.55;;
69627;SDS011;56850;51.984;5.088;2022-08-11T01:12:08;5.50;;;2.53;;
69627;SDS011;56850;51.984;5.088;2022-08-11T01:20:46;4.57;;;2.60;;
69627;SDS011;56850;51.984;5.088;2022-08-11T01:38:19;6.03;;;2.50;;
69627;SDS011;56850;51.984;5.088;2022-08-11T01:41:13;9.50;;;2.40;;
69627;SDS011;56850;51.984;5.088;2022-08-11T01:44:38;4.93;;;2.75;;
69627;SDS011;56850;51.984;5.088;2022-08-11T01:47:24;4.85;;;2.80;;
69627;SDS011;56850;51.984;5.088;2022-08-11T01:53:17;6.22;;;2.80;;
69627;SDS011;56850;51.984;5.088;2022-08-11T02:01:52;5.10;;;2.70;;
69627;SDS011;56850;51.984;5.088;2022-08-11T02:05:02;3.70;;;2.70;;
69627;SDS011;56850;51.984;5.088;2022-08-11T02:07:54;5.63;;;2.58;;
69627;SDS011;56850;51.984;5.088;2022-08-11T02:10:46;11.13;;;2.75;;
69627;SDS011;56850;51.984;5.088;2022-08-11T02:13:45;3.40;;;2.63;;
69627;SDS011;56850;51.984;5.088;2022-08-11T02:19:19;8.40;;;2.93;;
69627;SDS011;56850;51.984;5.088;2022-08-11T02:22:03;3.38;;;2.53;;
69627;SDS011;56850;51.984;5.088;2022-08-11T02:27:41;6.20;;;2.35;;
69627;SDS011;56850;51.984;5.088;2022-08-11T02:30:30;5.10;;;2.70;;
69627;SDS011;56850;51.984;5.088;2022-08-11T02:33:21;4.23;;;2.47;;
69627;SDS011;56850;51.984;5.088;2022-08-11T02:38:54;4.78;;;2.60;;
69627;SDS011;56850;51.984;5.088;2022-08-11T02:52:50;4.07;;;2.60;;
69627;SDS011;56850;51.984;5.088;2022-08-11T02:55:37;4.30;;;2.75;;
69627;SDS011;56850;51.984;5.088;2022-08-11T02:58:35;3.75;;;2.90;;
69627;SDS011;56850;51.984;5.088;2022-08-11T03:01:44;3.87;;;2.60;;
69627;SDS011;56850;51.984;5.088;2022-08-11T03:04:40;5.03;;;3.08;;
69627;SDS011;56850;51.984;5.088;2022-08-11T03:07:38;5.60;;;3.08;;
69627;SDS011;56850;51.984;5.088;2022-08-11T03:10:19;5.78;;;2.83;;
69627;SDS011;56850;51.984;5.088;2022-08-11T03:16:12;4.63;;;2.77;;
69627;SDS011;56850;51.984;5.088;2022-08-11T03:24:48;4.93;;;2.90;;
69627;SDS011;56850;51.984;5.088;2022-08-11T03:32:56;10.32;;;3.42;;
69627;SDS011;56850;51.984;5.088;2022-08-11T03:38:45;6.75;;;3.42;;
69627;SDS011;56850;51.984;5.088;2022-08-11T03:41:18;4.03;;;3.33;;
69627;SDS011;56850;51.984;5.088;2022-08-11T03:53:01;6.88;;;3.10;;
69627;SDS011;56850;51.984;5.088;2022-08-11T04:05:19;3.75;;;3.20;;
69627;SDS011;56850;51.984;5.088;2022-08-11T04:22:21;5.63;;;3.42;;
69627;SDS011;56850;51.984;5.088;2022-08-11T04:27:58;7.70;;;3.50;;
69627;SDS011;56850;51.984;5.088;2022-08-11T04:30:50;5.82;;;3.25;;
69627;SDS011;56850;51.984;5.088;2022-08-11T04:33:43;7.22;;;3.88;;
69627;SDS011;56850;51.984;5.088;2022-08-11T04:42:42;6.33;;;3.80;;
69627;SDS011;56850;51.984;5.088;2022-08-11T05:12:51;6.03;;;3.90;;
69627;SDS011;56850;51.984;5.088;2022-08-11T05:15:45;7.75;;;4.38;;
69627;SDS011;56850;51.984;5.088;2022-08-11T05:18:37;6.85;;;3.97;;
69627;SDS011;56850;51.984;5.088;2022-08-11T05:21:34;7.35;;;3.88;;
69627;SDS011;56850;51.984;5.088;2022-08-11T05:24:29;6.05;;;4.03;;
69627;SDS011;56850;51.984;5.088;2022-08-11T05:27:20;5.37;;;4.00;;
69627;SDS011;56850;51.984;5.088;2022-08-11T05:30:10;6.90;;;4.00;;
69627;SDS011;56850;51.984;5.088;2022-08-11T05:33:06;6.38;;;4.45;;
69627;SDS011;56850;51.984;5.088;2022-08-11T05:36:40;6.75;;;4.10;;
69627;SDS011;56850;51.984;5.088;2022-08-11T05:39:02;7.00;;;3.92;;
69627;SDS011;56850;51.984;5.088;2022-08-11T05:42:03;8.30;;;4.50;;
69627;SDS011;56850;51.984;5.088;2022-08-11T05:45:10;8.20;;;4.05;;
69627;SDS011;56850;51.984;5.088;2022-08-11T05:48:18;8.52;;;4.10;;
69627;SDS011;56850;51.984;5.088;2022-08-11T05:51:04;5.18;;;3.92;;
69627;SDS011;56850;51.984;5.088;2022-08-11T05:53:57;8.95;;;4.30;;
69627;SDS011;56850;51.984;5.088;2022-08-11T05:56:58;5.97;;;4.30;;
69627;SDS011;56850;51.984;5.088;2022-08-11T05:59:26;5.47;;;3.70;;
69627;SDS011;56850;51.984;5.088;2022-08-11T06:01:59;10.23;;;4.28;;
69627;SDS011;56850;51.984;5.088;2022-08-11T06:04:31;6.78;;;4.03;;
69627;SDS011;56850;51.984;5.088;2022-08-11T06:07:03;6.45;;;4.13;;
69627;SDS011;56850;51.984;5.088;2022-08-11T06:12:07;8.23;;;4.10;;
69627;SDS011;56850;51.984;5.088;2022-08-11T06:14:42;4.97;;;4.05;;
69627;SDS011;56850;51.984;5.088;2022-08-11T06:17:11;9.05;;;4.15;;
69627;SDS011;56850;51.984;5.088;2022-08-11T06:19:39;8.77;;;3.70;;
69627;SDS011;56850;51.984;5.088;2022-08-11T06:22:11;7.13;;;3.63;;
69627;SDS011;56850;51.984;5.088;2022-08-11T06:24:39;8.30;;;3.80;;
69627;SDS011;56850;51.984;5.088;2022-08-11T06:27:07;10.43;;;4.05;;
69627;SDS011;56850;51.984;5.088;2022-08-11T06:29:49;9.05;;;3.92;;
69627;SDS011;56850;51.984;5.088;2022-08-11T06:32:25;10.57;;;4.07;;
69627;SDS011;56850;51.984;5.088;2022-08-11T06:35:02;9.03;;;3.70;;
69627;SDS011;56850;51.984;5.088;2022-08-11T06:43:44;6.10;;;3.75;;
69627;SDS011;56850;51.984;5.088;2022-08-11T09:54:17;8.30;;;2.83;;
69627;SDS011;56850;51.984;5.088;2022-08-11T09:56:44;8.40;;;2.80;;
69627;SDS011;56850;51.984;5.088;2022-08-11T09:59:30;7.22;;;2.67;;
69627;SDS011;56850;51.984;5.088;2022-08-11T10:01:59;4.65;;;2.30;;
69627;SDS011;56850;51.984;5.088;2022-08-11T10:04:41;4.13;;;2.50;;
69627;SDS011;56850;51.984;5.088;2022-08-11T10:07:14;5.25;;;2.20;;
69627;SDS011;56850;51.984;5.088;2022-08-11T10:09:49;6.25;;;2.58;;
69627;SDS011;56850;51.984;5.088;2022-08-11T10:12:22;5.47;;;2.50;;
69627;SDS011;56850;51.984;5.088;2022-08-11T10:14:52;6.68;;;2.10;;
69627;SDS011;56850;51.984;5.088;2022-08-11T10:17:41;6.60;;;2.57;;
69627;SDS011;56850;51.984;5.088;2022-08-11T10:20:46;4.80;;;2.30;;
69627;SDS011;56850;51.984;5.088;2022-08-11T10:23:15;7.10;;;2.45;;
69627;SDS011;56850;51.984;5.088;2022-08-11T10:26:22;6.57;;;2.50;;
69627;SDS011;56850;51.984;5.088;2022-08-11T10:29:11;4.70;;;1.98;;
69627;SDS011;56850;51.984;5.088;2022-08-11T10:32:09;6.53;;;2.00;;
69627;SDS011;56850;51.984;5.088;2022-08-11T10:34:57;3.88;;;2.00;;
69627;SDS011;56850;51.984;5.088;2022-08-11T10:37:26;5.22;;;2.00;;
69627;SDS011;56850;51.984;5.088;2022-08-11T10:40:20;3.47;;;2.00;;
69627;SDS011;56850;51.984;5.088;2022-08-11T10:42:56;5.18;;;2.15;;
69627;SDS011;56850;51.984;5.088;2022-08-11T10:45:29;5.13;;;2.00;;
69627;SDS011;56850;51.984;5.088;2022-08-11T10:48:17;7.70;;;2.00;;
69627;SDS011;56850;51.984;5.088;2022-08-11T10:50:47;11.02;;;2.38;;
69627;SDS011;56850;51.984;5.088;2022-08-11T10:53:33;5.97;;;2.25;;
69627;SDS011;56850;51.984;5.088;2022-08-11T10:56:23;3.75;;;2.10;;
69627;SDS011;56850;51.984;5.088;2022-08-11T10:59:12;5.20;;;1.80;;
69627;SDS011;56850;51.984;5.088;2022-08-11T11:01:41;2.95;;;1.92;;
69627;SDS011;56850;51.984;5.088;2022-08-11T11:04:14;4.32;;;1.90;;
69627;SDS011;56850;51.984;5.088;2022-08-11T11:09:33;6.70;;;2.00;;
69627;SDS011;56850;51.984;5.088;2022-08-11T11:12:24;5.33;;;2.03;;
69627;SDS011;56850;51.984;5.088;2022-08-11T11:15:11;5.13;;;1.92;;
69627;SDS011;56850;51.984;5.088;2022-08-11T11:23:22;2.63;;;1.90;;
69627;SDS011;56850;51.984;5.088;2022-08-11T11:34:14;2.58;;;1.70;;
69627;SDS011;56850;51.984;5.088;2022-08-11T11:37:00;2.80;;;2.03;;
69627;SDS011;56850;51.984;5.088;2022-08-11T11:39:31;7.10;;;2.10;;
69627;SDS011;56850;51.984;5.088;2022-08-11T11:42:03;5.43;;;1.80;;
69627;SDS011;56850;51.984;5.088;2022-08-11T11:44:33;9.43;;;2.13;;
69627;SDS011;56850;51.984;5.088;2022-08-11T11:47:02;5.43;;;1.70;;
69627;SDS011;56850;51.984;5.088;2022-08-11T11:49:30;5.90;;;1.48;;
69627;SDS011;56850;51.984;5.088;2022-08-11T11:52:01;3.07;;;1.50;;
69627;SDS011;56850;51.984;5.088;2022-08-11T11:54:28;3.80;;;1.60;;
69627;SDS011;56850;51.984;5.088;2022-08-11T11:56:58;4.43;;;1.90;;
69627;SDS011;56850;51.984;5.088;2022-08-11T11:59:47;2.92;;;1.80;;
69627;SDS011;56850;51.984;5.088;2022-08-11T12:03:00;5.78;;;2.05;;
69627;SDS011;56850;51.984;5.088;2022-08-11T12:05:30;7.03;;;2.00;;
69627;SDS011;56850;51.984;5.088;2022-08-11T12:08:00;3.88;;;1.80;;
69627;SDS011;56850;51.984;5.088;2022-08-11T12:13:42;6.07;;;2.00;;
69627;SDS011;56850;51.984;5.088;2022-08-11T12:16:12;5.63;;;1.85;;
69627;SDS011;56850;51.984;5.088;2022-08-11T12:19:00;4.70;;;1.80;;
69627;SDS011;56850;51.984;5.088;2022-08-11T12:21:28;6.30;;;1.77;;
69627;SDS011;56850;51.984;5.088;2022-08-11T12:23:56;5.00;;;2.13;;
69627;SDS011;56850;51.984;5.088;2022-08-11T12:26:44;4.80;;;1.80;;
69627;SDS011;56850;51.984;5.088;2022-08-11T12:29:34;5.97;;;2.42;;
69627;SDS011;56850;51.984;5.088;2022-08-11T12:32:09;8.20;;;2.10;;
69627;SDS011;56850;51.984;5.088;2022-08-11T12:34:36;5.65;;;2.00;;
69627;SDS011;56850;51.984;5.088;2022-08-11T12:37:04;3.40;;;1.85;;
69627;SDS011;56850;51.984;5.088;2022-08-11T12:39:41;3.78;;;1.90;;
69627;SDS011;56850;51.984;5.088;2022-08-11T12:42:50;4.47;;;1.80;;
69627;SDS011;56850;51.984;5.088;2022-08-11T12:45:48;5.33;;;1.70;;
69627;SDS011;56850;51.984;5.088;2022-08-11T12:48:25;2.75;;;1.65;;
69627;SDS011;56850;51.984;5.088;2022-08-11T12:51:28;5.15;;;1.80;;
69627;SDS011;56850;51.984;5.088;2022-08-11T12:57:40;7.40;;;2.10;;
69627;SDS011;56850;51.984;5.088;2022-08-11T13:00:29;3.20;;;1.70;;
69627;SDS011;56850;51.984;5.088;2022-08-11T13:03:17;5.97;;;2.03;;
69627;SDS011;56850;51.984;5.088;2022-08-11T13:06:04;2.67;;;2.00;;
69627;SDS011;56850;51.984;5.088;2022-08-11T13:08:33;3.85;;;2.10;;
69627;SDS011;56850;51.984;5.088;2022-08-11T13:11:02;5.32;;;2.10;;
69627;SDS011;56850;51.984;5.088;2022-08-11T13:13:49;4.60;;;1.70;;
69627;SDS011;56850;51.984;5.088;2022-08-11T13:16:32;6.35;;;1.70;;
69627;SDS011;56850;51.984;5.088;2022-08-11T13:19:19;4.65;;;1.80;;
69627;SDS011;56850;51.984;5.088;2022-08-11T13:21:50;3.17;;;1.90;;
69627;SDS011;56850;51.984;5.088;2022-08-11T13:24:19;2.17;;;1.70;;
69627;SDS011;56850;51.984;5.088;2022-08-11T13:26:47;7.43;;;1.80;;
69627;SDS011;56850;51.984;5.088;2022-08-11T13:29:17;2.42;;;1.70;;
69627;SDS011;56850;51.984;5.088;2022-08-11T13:31:46;5.53;;;2.00;;
69627;SDS011;56850;51.984;5.088;2022-08-11T13:34:14;4.28;;;1.90;;
69627;SDS011;56850;51.984;5.088;2022-08-11T13:36:43;2.97;;;1.90;;
69627;SDS011;56850;51.984;5.088;2022-08-11T13:39:11;8.43;;;1.90;;
69627;SDS011;56850;51.984;5.088;2022-08-11T13:41:40;4.53;;;2.00;;
69627;SDS011;56850;51.984;5.088;2022-08-11T13:44:10;4.07;;;1.92;;
69627;SDS011;56850;51.984;5.088;2022-08-11T13:46:45;3.40;;;1.83;;
69627;SDS011;56850;51.984;5.088;2022-08-11T13:49:18;5.53;;;1.77;;
69627;SDS011;56850;51.984;5.088;2022-08-11T13:51:47;4.87;;;2.10;;
69627;SDS011;56850;51.984;5.088;2022-08-11T13:54:19;5.03;;;2.00;;
69627;SDS011;56850;51.984;5.088;2022-08-11T13:56:48;2.90;;;1.90;;
69627;SDS011;56850;51.984;5.088;2022-08-11T13:59:19;8.32;;;1.90;;
69627;SDS011;56850;51.984;5.088;2022-08-11T14:01:57;3.47;;;2.15;;
69627;SDS011;56850;51.984;5.088;2022-08-11T14:04:52;3.80;;;2.00;;
69627;SDS011;56850;51.984;5.088;2022-08-11T14:07:23;2.80;;;1.75;;
69627;SDS011;56850;51.984;5.088;2022-08-11T14:09:55;3.92;;;2.00;;
69627;SDS011;56850;51.984;5.088;2022-08-11T14:12:25;4.13;;;1.83;;
69627;SDS011;56850;51.984;5.088;2022-08-11T14:15:18;2.42;;;2.05;;
69627;SDS011;56850;51.984;5.088;2022-08-11T14:17:53;3.30;;;1.80;;
69627;SDS011;56850;51.984;5.088;2022-08-11T14:20:27;5.25;;;1.92;;
69627;SDS011;56850;51.984;5.088;2022-08-11T14:23:16;3.58;;;1.92;;
69627;SDS011;56850;51.984;5.088;2022-08-11T14:25:44;5.57;;;1.98;;
69627;SDS011;56850;51.984;5.088;2022-08-11T14:28:32;6.40;;;2.00;;
69627;SDS011;56850;51.984;5.088;2022-08-11T14:31:09;2.67;;;2.00;;
69627;SDS011;56850;51.984;5.088;2022-08-11T14:33:37;4.40;;;2.10;;
69627;SDS011;56850;51.984;5.088;2022-08-11T14:36:27;4.38;;;2.15;;
69627;SDS011;56850;51.984;5.088;2022-08-11T14:39:13;3.97;;;2.00;;
69627;SDS011;56850;51.984;5.088;2022-08-11T14:41:54;5.40;;;2.10;;
69627;SDS011;56850;51.984;5.088;2022-08-11T14:44:45;6.53;;;2.03;;
69627;SDS011;56850;51.984;5.088;2022-08-11T14:47:43;4.15;;;2.20;;
69627;SDS011;56850;51.984;5.088;2022-08-11T14:50:14;4.95;;;2.17;;
69627;SDS011;56850;51.984;5.088;2022-08-11T14:52:52;4.85;;;1.90;;
69627;SDS011;56850;51.984;5.088;2022-08-11T14:55:22;4.80;;;1.80;;
69627;SDS011;56850;51.984;5.088;2022-08-11T14:58:10;6.07;;;3.37;;
69627;SDS011;56850;51.984;5.088;2022-08-11T15:00:41;7.60;;;2.00;;
69627;SDS011;56850;51.984;5.088;2022-08-11T15:03:10;6.00;;;1.90;;
69627;SDS011;56850;51.984;5.088;2022-08-11T15:05:52;4.25;;;2.13;;
69627;SDS011;56850;51.984;5.088;2022-08-11T15:08:33;4.75;;;1.98;;
69627;SDS011;56850;51.984;5.088;2022-08-11T15:11:29;6.00;;;2.17;;
69627;SDS011;56850;51.984;5.088;2022-08-11T15:14:15;4.95;;;2.00;;
69627;SDS011;56850;51.984;5.088;2022-08-11T15:17:07;5.07;;;2.08;;
69627;SDS011;56850;51.984;5.088;2022-08-11T15:19:38;5.00;;;2.22;;
69627;SDS011;56850;51.984;5.088;2022-08-11T15:22:25;4.05;;;1.90;;
69627;SDS011;56850;51.984;5.088;2022-08-11T15:25:11;5.13;;;2.13;;
69627;SDS011;56850;51.984;5.088;2022-08-11T15:27:39;5.35;;;1.85;;
69627;SDS011;56850;51.984;5.088;2022-08-11T15:30:26;5.45;;;1.90;;
69627;SDS011;56850;51.984;5.088;2022-08-11T15:33:13;8.25;;;2.47;;
69627;SDS011;56850;51.984;5.088;2022-08-11T15:36:02;5.68;;;2.00;;
69627;SDS011;56850;51.984;5.088;2022-08-11T15:38:53;5.63;;;2.00;;
69627;SDS011;56850;51.984;5.088;2022-08-11T15:41:32;5.07;;;1.92;;
69627;SDS011;56850;51.984;5.088;2022-08-11T15:44:26;3.55;;;1.90;;
69627;SDS011;56850;51.984;5.088;2022-08-11T15:47:51;2.17;;;1.92;;
69627;SDS011;56850;51.984;5.088;2022-08-11T15:50:32;4.90;;;2.00;;
69627;SDS011;56850;51.984;5.088;2022-08-11T15:53:05;3.93;;;1.93;;
69627;SDS011;56850;51.984;5.088;2022-08-11T15:55:37;4.28;;;2.55;;
69627;SDS011;56850;51.984;5.088;2022-08-11T15:58:06;3.63;;;2.10;;
69627;SDS011;56850;51.984;5.088;2022-08-11T16:00:53;5.65;;;1.90;;
69627;SDS011;56850;51.984;5.088;2022-08-11T16:03:48;4.28;;;2.20;;
69627;SDS011;56850;51.984;5.088;2022-08-11T16:06:39;3.47;;;2.10;;
69627;SDS011;56850;51.984;5.088;2022-08-11T16:09:13;8.10;;;2.10;;
69627;SDS011;56850;51.984;5.088;2022-08-11T16:11:44;5.30;;;2.15;;
69627;SDS011;56850;51.984;5.088;2022-08-11T16:14:13;4.95;;;1.90;;
69627;SDS011;56850;51.984;5.088;2022-08-11T16:17:01;6.22;;;2.17;;
69627;SDS011;56850;51.984;5.088;2022-08-11T16:19:29;5.33;;;2.13;;
69627;SDS011;56850;51.984;5.088;2022-08-11T16:22:02;7.72;;;1.92;;
69627;SDS011;56850;51.984;5.088;2022-08-11T16:24:37;5.53;;;2.30;;
69627;SDS011;56850;51.984;5.088;2022-08-11T16:27:30;4.80;;;1.92;;
69627;SDS011;56850;51.984;5.088;2022-08-11T16:30:00;3.28;;;2.00;;
69627;SDS011;56850;51.984;5.088;2022-08-11T16:32:29;8.40;;;2.00;;
69627;SDS011;56850;51.984;5.088;2022-08-11T16:35:01;4.07;;;2.30;;
69627;SDS011;56850;51.984;5.088;2022-08-11T16:37:51;3.55;;;1.80;;
69627;SDS011;56850;51.984;5.088;2022-08-11T16:40:38;4.88;;;2.20;;
69627;SDS011;56850;51.984;5.088;2022-08-11T16:43:07;4.25;;;2.13;;
69627;SDS011;56850;51.984;5.088;2022-08-11T16:45:57;4.20;;;2.30;;
69627;SDS011;56850;51.984;5.088;2022-08-11T16:48:46;3.97;;;2.40;;
69627;SDS011;56850;51.984;5.088;2022-08-11T16:51:14;3.97;;;2.03;;
69627;SDS011;56850;51.984;5.088;2022-08-11T16:53:42;6.15;;;2.38;;
69627;SDS011;56850;51.984;5.088;2022-08-11T16:59:15;7.63;;;2.27;;
69627;SDS011;56850;51.984;5.088;2022-08-11T17:01:52;7.15;;;1.92;;
69627;SDS011;56850;51.984;5.088;2022-08-11T17:07:28;4.43;;;1.90;;
69627;SDS011;56850;51.984;5.088;2022-08-11T17:10:21;4.45;;;1.90;;
69627;SDS011;56850;51.984;5.088;2022-08-11T17:13:34;6.40;;;2.00;;
69627;SDS011;56850;51.984;5.088;2022-08-11T17:16:13;5.30;;;2.08;;
69627;SDS011;56850;51.984;5.088;2022-08-11T17:18:58;2.92;;;1.90;;
69627;SDS011;56850;51.984;5.088;2022-08-11T17:21:44;3.55;;;1.70;;
69627;SDS011;56850;51.984;5.088;2022-08-11T17:24:32;4.82;;;1.90;;
69627;SDS011;56850;51.984;5.088;2022-08-11T17:27:02;2.47;;;1.90;;
69627;SDS011;56850;51.984;5.088;2022-08-11T17:32:24;4.38;;;2.13;;
69627;SDS011;56850;51.984;5.088;2022-08-11T17:35:27;4.05;;;2.08;;
69627;SDS011;56850;51.984;5.088;2022-08-11T17:40:31;3.40;;;1.77;;
69627;SDS011;56850;51.984;5.088;2022-08-11T17:43:02;5.95;;;3.00;;
69627;SDS011;56850;51.984;5.088;2022-08-11T17:45:50;6.97;;;4.68;;
69627;SDS011;56850;51.984;5.088;2022-08-11T17:48:35;3.78;;;2.70;;
69627;SDS011;56850;51.984;5.088;2022-08-11T17:51:13;5.13;;;1.90;;
69627;SDS011;56850;51.984;5.088;2022-08-11T17:54:04;4.27;;;1.70;;
69627;SDS011;56850;51.984;5.088;2022-08-11T17:56:52;4.47;;;1.73;;
69627;SDS011;56850;51.984;5.088;2022-08-11T17:59:46;3.20;;;1.85;;
69627;SDS011;56850;51.984;5.088;2022-08-11T18:02:28;6.13;;;3.63;;
69627;SDS011;56850;51.984;5.088;2022-08-11T18:05:15;7.15;;;3.75;;
69627;SDS011;56850;51.984;5.088;2022-08-11T18:07:45;4.33;;;2.23;;
69627;SDS011;56850;51.984;5.088;2022-08-11T18:10:35;5.20;;;2.30;;
69627;SDS011;56850;51.984;5.088;2022-08-11T18:13:22;7.22;;;2.55;;
69627;SDS011;56850;51.984;5.088;2022-08-11T18:16:09;3.72;;;1.70;;
69627;SDS011;56850;51.984;5.088;2022-08-11T18:18:56;5.78;;;2.03;;
69627;SDS011;56850;51.984;5.088;2022-08-11T18:21:42;7.57;;;2.10;;
69627;SDS011;56850;51.984;5.088;2022-08-11T18:24:46;2.70;;;1.77;;
69627;SDS011;56850;51.984;5.088;2022-08-11T18:27:35;4.70;;;1.92;;
69627;SDS011;56850;51.984;5.088;2022-08-11T18:30:24;4.07;;;1.90;;
69627;SDS011;56850;51.984;5.088;2022-08-11T18:33:11;3.70;;;2.20;;
69627;SDS011;56850;51.984;5.088;2022-08-11T18:36:23;2.47;;;1.60;;
69627;SDS011;56850;51.984;5.088;2022-08-11T18:39:14;5.50;;;1.67;;
69627;SDS011;56850;51.984;5.088;2022-08-11T18:42:05;4.35;;;1.60;;
69627;SDS011;56850;51.984;5.088;2022-08-11T18:45:00;2.95;;;1.65;;
69627;SDS011;56850;51.984;5.088;2022-08-11T18:47:54;8.70;;;2.30;;
69627;SDS011;56850;51.984;5.088;2022-08-11T18:50:46;5.20;;;1.80;;
69627;SDS011;56850;51.984;5.088;2022-08-11T18:53:54;2.90;;;1.80;;
69627;SDS011;56850;51.984;5.088;2022-08-11T18:56:44;5.65;;;1.83;;
69627;SDS011;56850;51.984;5.088;2022-08-11T18:59:37;2.78;;;1.52;;
69627;SDS011;56850;51.984;5.088;2022-08-11T19:02:25;5.50;;;1.70;;
69627;SDS011;56850;51.984;5.088;2022-08-11T19:05:16;3.50;;;1.67;;
69627;SDS011;56850;51.984;5.088;2022-08-11T19:08:24;5.82;;;1.65;;
69627;SDS011;56850;51.984;5.088;2022-08-11T19:11:14;4.10;;;1.60;;
69627;SDS011;56850;51.984;5.088;2022-08-11T19:14:07;4.30;;;1.70;;
69627;SDS011;56850;51.984;5.088;2022-08-11T19:16:55;5.30;;;1.90;;
69627;SDS011;56850;51.984;5.088;2022-08-11T19:20:07;5.73;;;1.87;;
69627;SDS011;56850;51.984;5.088;2022-08-11T19:22:55;3.80;;;1.67;;
69627;SDS011;56850;51.984;5.088;2022-08-11T19:25:43;4.95;;;1.67;;
69627;SDS011;56850;51.984;5.088;2022-08-11T19:28:29;3.80;;;1.70;;
69627;SDS011;56850;51.984;5.088;2022-08-11T19:31:18;5.65;;;1.83;;
69627;SDS011;56850;51.984;5.088;2022-08-11T19:34:12;5.90;;;1.50;;
69627;SDS011;56850;51.984;5.088;2022-08-11T19:37:00;6.28;;;1.60;;
69627;SDS011;56850;51.984;5.088;2022-08-11T19:39:54;4.57;;;1.75;;
69627;SDS011;56850;51.984;5.088;2022-08-11T19:42:44;2.58;;;1.70;;
69627;SDS011;56850;51.984;5.088;2022-08-11T19:45:52;5.72;;;1.85;;
69627;SDS011;56850;51.984;5.088;2022-08-11T19:48:42;4.47;;;1.90;;
69627;SDS011;56850;51.984;5.088;2022-08-11T19:51:29;5.63;;;2.10;;
69627;SDS011;56850;51.984;5.088;2022-08-11T19:54:19;4.75;;;1.80;;
69627;SDS011;56850;51.984;5.088;2022-08-11T19:57:10;5.85;;;1.85;;
69627;SDS011;56850;51.984;5.088;2022-08-11T20:00:04;2.80;;;1.67;;
69627;SDS011;56850;51.984;5.088;2022-08-11T20:02:55;6.57;;;1.80;;
69627;SDS011;56850;51.984;5.088;2022-08-11T20:05:43;3.67;;;2.00;;
69627;SDS011;56850;51.984;5.088;2022-08-11T20:08:29;5.45;;;1.70;;
69627;SDS011;56850;51.984;5.088;2022-08-11T20:11:21;3.88;;;2.00;;
69627;SDS011;56850;51.984;5.088;2022-08-11T20:14:07;4.68;;;1.80;;
69627;SDS011;56850;51.984;5.088;2022-08-11T20:16:56;3.00;;;1.70;;
69627;SDS011;56850;51.984;5.088;2022-08-11T20:19:42;3.67;;;1.92;;
69627;SDS011;56850;51.984;5.088;2022-08-11T20:22:28;5.43;;;2.13;;
69627;SDS011;56850;51.984;5.088;2022-08-11T20:25:16;7.25;;;1.85;;
69627;SDS011;56850;51.984;5.088;2022-08-11T20:28:03;4.68;;;1.77;;
69627;SDS011;56850;51.984;5.088;2022-08-11T20:30:50;3.40;;;2.30;;
69627;SDS011;56850;51.984;5.088;2022-08-11T20:33:37;6.50;;;2.00;;
69627;SDS011;56850;51.984;5.088;2022-08-11T20:36:24;3.83;;;2.20;;
69627;SDS011;56850;51.984;5.088;2022-08-11T20:39:20;3.50;;;1.60;;
69627;SDS011;56850;51.984;5.088;2022-08-11T20:42:06;4.38;;;1.80;;
69627;SDS011;56850;51.984;5.088;2022-08-11T20:44:56;12.93;;;1.80;;
69627;SDS011;56850;51.984;5.088;2022-08-11T20:47:49;4.85;;;1.80;;
69627;SDS011;56850;51.984;5.088;2022-08-11T20:50:44;3.03;;;1.50;;
69627;SDS011;56850;51.984;5.088;2022-08-11T20:53:37;3.17;;;1.70;;
69627;SDS011;56850;51.984;5.088;2022-08-11T20:56:31;2.63;;;1.77;;
69627;SDS011;56850;51.984;5.088;2022-08-11T20:59:20;3.50;;;1.73;;
69627;SDS011;56850;51.984;5.088;2022-08-11T21:02:21;4.53;;;1.80;;
69627;SDS011;56850;51.984;5.088;2022-08-11T21:05:10;3.90;;;1.70;;
69627;SDS011;56850;51.984;5.088;2022-08-11T21:08:17;4.28;;;1.83;;
69627;SDS011;56850;51.984;5.088;2022-08-11T21:11:07;2.63;;;1.80;;
69627;SDS011;56850;51.984;5.088;2022-08-11T21:13:54;6.23;;;2.30;;
69627;SDS011;56850;51.984;5.088;2022-08-11T21:16:43;5.40;;;1.85;;
69627;SDS011;56850;51.984;5.088;2022-08-11T21:19:53;6.82;;;2.10;;
69627;SDS011;56850;51.984;5.088;2022-08-11T21:22:49;4.97;;;1.90;;
69627;SDS011;56850;51.984;5.088;2022-08-11T21:26:10;3.72;;;2.33;;
69627;SDS011;56850;51.984;5.088;2022-08-11T21:28:58;5.40;;;3.00;;
69627;SDS011;56850;51.984;5.088;2022-08-11T21:31:45;6.82;;;3.00;;
69627;SDS011;56850;51.984;5.088;2022-08-11T21:34:33;5.53;;;2.10;;
69627;SDS011;56850;51.984;5.088;2022-08-11T21:37:20;6.45;;;2.50;;
69627;SDS011;56850;51.984;5.088;2022-08-11T21:40:07;4.90;;;2.28;;
69627;SDS011;56850;51.984;5.088;2022-08-11T21:42:55;4.73;;;2.27;;
69627;SDS011;56850;51.984;5.088;2022-08-11T21:45:43;4.35;;;2.15;;
69627;SDS011;56850;51.984;5.088;2022-08-11T21:48:31;4.35;;;2.10;;
69627;SDS011;56850;51.984;5.088;2022-08-11T21:51:18;6.72;;;2.20;;
69627;SDS011;56850;51.984;5.088;2022-08-11T21:54:09;6.15;;;2.33;;
69627;SDS011;56850;51.984;5.088;2022-08-11T21:56:56;3.37;;;2.10;;
69627;SDS011;56850;51.984;5.088;2022-08-11T21:59:50;8.05;;;2.20;;
69627;SDS011;56850;51.984;5.088;2022-08-11T22:02:42;7.40;;;2.30;;
69627;SDS011;56850;51.984;5.088;2022-08-11T22:05:31;6.10;;;1.92;;
69627;SDS011;56850;51.984;5.088;2022-08-11T22:08:17;3.70;;;2.20;;
69627;SDS011;56850;51.984;5.088;2022-08-11T22:11:04;3.83;;;1.97;;
69627;SDS011;56850;51.984;5.088;2022-08-11T22:13:58;7.13;;;1.85;;
69627;SDS011;56850;51.984;5.088;2022-08-11T22:16:45;4.82;;;1.95;;
69627;SDS011;56850;51.984;5.088;2022-08-11T22:19:30;3.30;;;2.00;;
69627;SDS011;56850;51.984;5.088;2022-08-11T22:22:18;4.75;;;2.40;;
69627;SDS011;56850;51.984;5.088;2022-08-11T22:25:22;5.50;;;2.03;;
69627;SDS011;56850;51.984;5.088;2022-08-11T22:28:21;5.68;;;1.98;;
69627;SDS011;56850;51.984;5.088;2022-08-11T22:31:07;5.10;;;2.50;;
69627;SDS011;56850;51.984;5.088;2022-08-11T22:33:54;5.95;;;2.10;;
69627;SDS011;56850;51.984;5.088;2022-08-11T22:36:40;4.20;;;2.10;;
69627;SDS011;56850;51.984;5.088;2022-08-11T22:39:27;5.57;;;2.10;;
69627;SDS011;56850;51.984;5.088;2022-08-11T22:42:29;4.55;;;2.00;;
69627;SDS011;56850;51.984;5.088;2022-08-11T22:45:15;5.90;;;2.20;;
69627;SDS011;56850;51.984;5.088;2022-08-11T22:48:02;6.32;;;2.30;;
69627;SDS011;56850;51.984;5.088;2022-08-11T22:50:49;4.28;;;2.05;;
69627;SDS011;56850;51.984;5.088;2022-08-11T22:53:37;3.70;;;2.33;;